Time;durP1;ratioP1;P1;durP2;ratioP2;P2;SDS_P1;SDS_P2;PMS_P1;PMS_P2;Temp;Humidity;BMP_temperature;BMP_pressure;BME280_temperature;BME280_humidity;BME280_pressure;Samples;Min_cycle;Max_cycle;Signal;HPM_P1;HPM_P2
2021/04/08 00:00:12;;;;;;;;;;;;;;;20.53;49.60;100867.19;2116074;28;1583;-35
2021/04/08 00:01:12;;;;;;;;;;;;;;;20.53;49.63;100879.41;2116246;28;1566;-32
2021/04/08 00:02:13;;;;;;;;;;;;;;;20.53;49.54;100875.72;2113712;28;2040;-31
2021/04/08 00:03:14;;;;;;;;;;;;;;;20.53;49.61;100875.72;2116519;28;1822;-33
2021/04/08 00:04:15;;;;;;;;;;;;;;;20.52;49.70;100882.59;2108918;28;2289;-31
2021/04/08 00:05:15;;;;;;;;;;;;;;;20.52;49.68;100872.03;2115067;28;2249;-32
2021/04/08 00:06:16;;;;;;;;;;;;;;;20.52;49.65;100882.59;2115961;28;1420;-34
2021/04/08 00:07:17;;;;;;;;;;;;;;;20.52;49.70;100879.75;2109149;28;1991;-32
2021/04/08 00:08:18;;;;;;;;;;;;;;;20.52;49.63;100886.25;2115917;28;2096;-33
2021/04/08 00:09:18;;;;;;;;;;;;;;;20.53;49.75;100887.06;2109636;28;3802;-34
2021/04/08 00:10:19;;;;;;;;;;;;;;;20.53;49.70;100885.09;2111556;28;2124;-34
2021/04/08 00:11:20;;;;;;;;;;;;;;;20.53;49.69;100887.94;2116223;28;1210;-31
2021/04/08 00:12:21;;;;;;;;;;;;;;;20.52;49.58;100886.25;2115746;28;1204;-32
2021/04/08 00:13:21;;;;;;;;;;;;;;;20.52;49.60;100891.94;2112597;28;2054;-31
2021/04/08 00:14:25;;;;;;;;;;;;;;;20.53;49.75;100896.47;2107871;28;2266;-32
2021/04/08 00:15:25;;;;;;;;;;;;;;;20.53;49.65;100901.28;2116256;28;1622;-33
2021/04/08 00:16:26;;;;;;;;;;;;;;;20.53;49.73;100884.25;2115794;28;1622;-32
2021/04/08 00:17:27;;;;;;;;;;;;;;;20.53;49.79;100887.94;2115288;27;1915;-31
2021/04/08 00:18:28;;;;;;;;;;;;;;;20.52;49.76;100889.09;2115356;28;2060;-33
2021/04/08 00:19:29;;;;;;;;;;;;;;;20.52;49.61;100888.28;2108511;28;2162;-35
2021/04/08 00:20:29;;;;;;;;;;;;;;;20.53;49.66;100896.47;2115993;28;1124;-37
2021/04/08 00:21:30;;;;;;;;;;;;;;;20.54;49.63;100888.75;2116033;28;1571;-32
2021/04/08 00:22:31;;;;;;;;;;;;;;;20.53;49.79;100889.91;2114381;28;1744;-31
2021/04/08 00:23:32;;;;;;;;;;;;;;;20.54;49.69;100897.28;2114910;27;1995;-32
2021/04/08 00:24:32;;;;;;;;;;;;;;;20.54;49.82;100902.97;2114920;27;2151;-32
2021/04/08 00:25:36;;;;;;;;;;;;;;;20.54;49.81;100891.59;2116376;28;1146;-31
2021/04/08 00:26:37;;;;;;;;;;;;;;;20.53;49.88;100896.47;2115936;28;1593;-33
2021/04/08 00:27:37;;;;;;;;;;;;;;;20.54;49.81;100892.47;2115064;28;2082;-33
2021/04/08 00:28:38;;;;;;;;;;;;;;;20.54;49.71;100901.00;2108381;28;2032;-32
2021/04/08 00:29:39;;;;;;;;;;;;;;;20.53;49.84;100906.97;2112493;28;2628;-31
2021/04/08 00:30:43;;;;;;;;;;;;;;;20.53;49.72;100902.16;2116279;28;1555;-33
2021/04/08 00:31:44;;;;;;;;;;;;;;;20.55;49.77;100907.50;2109725;28;2032;-32
2021/04/08 00:32:44;;;;;;;;;;;;;;;20.54;49.90;100909.50;2114573;28;1860;-35
2021/04/08 00:33:45;;;;;;;;;;;;;;;20.55;49.93;100907.50;2115030;28;2376;-31
2021/04/08 00:34:46;;;;;;;;;;;;;;;20.55;49.71;100898.97;2108718;28;2297;-32
2021/04/08 00:35:47;;;;;;;;;;;;;;;20.54;49.94;100909.50;2114582;28;1422;-35
2021/04/08 00:36:48;;;;;;;;;;;;;;;20.54;49.89;100903.81;2115037;28;1935;-33
2021/04/08 00:37:48;;;;;;;;;;;;;;;20.54;50.00;100908.66;2114212;28;2089;-31
2021/04/08 00:38:49;;;;;;;;;;;;;;;20.55;49.70;100911.16;2114793;28;2181;-33
2021/04/08 00:39:50;;;;;;;;;;;;;;;20.55;49.85;100914.00;2107658;28;2225;-31
2021/04/08 00:40:51;;;;;;;;;;;;;;;20.55;49.85;100910.34;2116231;28;1362;-32
2021/04/08 00:41:51;;;;;;;;;;;;;;;20.55;49.91;100911.16;2108175;28;2965;-34
2021/04/08 00:42:52;;;;;;;;;;;;;;;20.55;49.90;100914.00;2112127;28;2150;-32
2021/04/08 00:43:54;;;;;;;;;;;;;;;20.55;49.89;100907.50;2115439;28;1694;-33
2021/04/08 00:44:55;;;;;;;;;;;;;;;20.55;50.01;100910.34;2111993;28;1864;-33
2021/04/08 00:45:56;;;;;;;;;;;;;;;20.54;49.96;100906.66;2110583;28;2244;-34
2021/04/08 00:46:57;;;;;;;;;;;;;;;20.55;50.00;100914.00;2112109;28;2513;-31
2021/04/08 00:47:58;;;;;;;;;;;;;;;20.55;49.86;100907.50;2114224;28;2313;-33
2021/04/08 00:48:59;;;;;;;;;;;;;;;20.54;49.96;100912.34;2107940;28;2159;-34
2021/04/08 00:50:01;;;;;;;;;;;;;;;20.55;49.91;100918.88;2109190;28;2396;-31
2021/04/08 00:51:01;;;;;;;;;;;;;;;20.55;50.03;100916.84;2114372;28;1850;-31
2021/04/08 00:52:02;;;;;;;;;;;;;;;20.54;50.04;100929.41;2110826;28;2215;-31
2021/04/08 00:53:03;;;;;;;;;;;;;;;20.54;49.99;100915.19;2111470;28;2181;-32
2021/04/08 00:54:04;;;;;;;;;;;;;;;20.54;49.91;100918.03;2115194;28;1136;-31
2021/04/08 00:55:05;;;;;;;;;;;;;;;20.55;49.96;100918.88;2115485;28;1733;-31
2021/04/08 00:56:05;;;;;;;;;;;;;;;20.55;49.97;100916.84;2114748;28;1356;-33
2021/04/08 00:57:06;;;;;;;;;;;;;;;20.54;49.93;100920.03;2112896;28;1945;-31
2021/04/08 00:58:07;;;;;;;;;;;;;;;20.54;50.07;100915.19;2114169;28;2146;-31
2021/04/08 00:59:08;;;;;;;;;;;;;;;20.55;50.10;100911.16;2114888;27;2189;-34
2021/04/08 01:00:08;;;;;;;;;;;;;;;20.56;50.04;100920.50;2108005;27;2360;-33
2021/04/08 01:01:09;;;;;;;;;;;;;;;20.56;50.10;100926.19;2113857;28;2148;-32
2021/04/08 01:02:10;;;;;;;;;;;;;;;20.55;50.11;100928.22;2115469;28;1743;-32
2021/04/08 01:03:11;;;;;;;;;;;;;;;20.56;50.15;100926.19;2115122;28;2549;-33
2021/04/08 01:04:12;;;;;;;;;;;;;;;20.55;50.08;100933.91;2115543;28;1032;-32
2021/04/08 01:05:12;;;;;;;;;;;;;;;20.56;50.16;100929.88;2114824;28;1923;-31
2021/04/08 01:06:13;;;;;;;;;;;;;;;20.56;50.08;100929.88;2113057;28;2213;-32
2021/04/08 01:07:14;;;;;;;;;;;;;;;20.56;50.17;100929.03;2113583;28;1909;-34
2021/04/08 01:08:15;;;;;;;;;;;;;;;20.56;50.11;100938.41;2115561;28;1321;-34
2021/04/08 01:09:15;;;;;;;;;;;;;;;20.56;50.18;100932.72;2112618;28;3851;-35
2021/04/08 01:10:16;;;;;;;;;;;;;;;20.55;50.19;100939.59;2111763;28;2280;-32
2021/04/08 01:11:17;;;;;;;;;;;;;;;20.56;50.12;100934.72;2114590;28;2133;-34
2021/04/08 01:12:18;;;;;;;;;;;;;;;20.55;50.20;100931.06;2114405;28;2311;-31
2021/04/08 01:13:18;;;;;;;;;;;;;;;20.56;50.09;100938.41;2112254;28;3068;-33
2021/04/08 01:14:19;;;;;;;;;;;;;;;20.56;50.04;100940.41;2115189;28;1860;-31
2021/04/08 01:15:20;;;;;;;;;;;;;;;20.55;50.17;100933.06;2113409;28;2144;-35
2021/04/08 01:16:21;;;;;;;;;;;;;;;20.56;50.06;100940.41;2111361;28;2168;-32
2021/04/08 01:17:21;;;;;;;;;;;;;;;20.56;50.10;100943.25;2113494;28;1189;-35
2021/04/08 01:18:22;;;;;;;;;;;;;;;20.55;50.24;100945.28;2113308;28;2098;-30
2021/04/08 01:19:23;;;;;;;;;;;;;;;20.56;50.23;100948.94;2113261;28;1856;-34
2021/04/08 01:20:24;;;;;;;;;;;;;;;20.56;50.11;100946.09;2113315;28;2653;-33
2021/04/08 01:21:24;;;;;;;;;;;;;;;20.56;50.22;100943.25;2115808;28;1418;-31
2021/04/08 01:22:25;;;;;;;;;;;;;;;20.56;50.16;100946.09;2114640;28;2050;-35
2021/04/08 01:23:26;;;;;;;;;;;;;;;20.56;50.29;100957.47;2111478;28;2227;-33
2021/04/08 01:24:27;;;;;;;;;;;;;;;20.56;50.20;100954.63;2108067;28;1911;-32
2021/04/08 01:25:28;;;;;;;;;;;;;;;20.56;50.15;100949.75;2113474;28;2294;-32
2021/04/08 01:26:29;;;;;;;;;;;;;;;20.55;50.15;100962.31;2113085;27;2070;-31
2021/04/08 01:27:29;;;;;;;;;;;;;;;20.56;50.22;100957.47;2105605;28;2079;-31
2021/04/08 01:28:30;;;;;;;;;;;;;;;20.56;50.25;100958.28;2111374;27;2248;-34
2021/04/08 01:29:31;;;;;;;;;;;;;;;20.56;50.33;100957.47;2108743;28;2477;-31
2021/04/08 01:30:32;;;;;;;;;;;;;;;20.58;50.29;100949.44;2108028;27;2771;-32
2021/04/08 01:31:32;;;;;;;;;;;;;;;20.56;50.30;100958.28;2112313;27;1968;-31
2021/04/08 01:32:33;;;;;;;;;;;;;;;20.56;50.43;100946.91;2113910;28;2039;-32
2021/04/08 01:33:34;;;;;;;;;;;;;;;20.56;50.53;100949.75;2114842;28;2122;-32
2021/04/08 01:34:35;;;;;;;;;;;;;;;20.56;50.25;100952.59;2115597;28;2052;-32
2021/04/08 01:35:35;;;;;;;;;;;;;;;20.56;50.35;100946.09;2115409;28;1551;-31
2021/04/08 01:36:36;;;;;;;;;;;;;;;20.56;50.19;100958.28;2113891;28;1926;-31
2021/04/08 01:37:37;;;;;;;;;;;;;;;20.56;50.31;100958.28;2108840;28;1917;-31
2021/04/08 01:38:38;;;;;;;;;;;;;;;20.56;50.22;100957.47;2111403;28;1873;-33
2021/04/08 01:39:39;;;;;;;;;;;;;;;20.57;50.27;100956.31;2115408;28;1497;-31
2021/04/08 01:40:40;;;;;;;;;;;;;;;20.57;50.23;100962.00;2115135;28;1458;-31
2021/04/08 01:41:40;;;;;;;;;;;;;;;20.57;50.47;100950.63;2107654;28;2922;-33
2021/04/08 01:42:41;;;;;;;;;;;;;;;20.57;50.45;100962.00;2112070;28;1209;-32
2021/04/08 01:43:42;;;;;;;;;;;;;;;20.58;50.34;100955.13;2112061;28;2239;-33
2021/04/08 01:44:43;;;;;;;;;;;;;;;20.58;50.57;100963.66;2115967;28;1135;-34
2021/04/08 01:45:44;;;;;;;;;;;;;;;20.58;50.52;100955.94;2114236;28;2009;-34
2021/04/08 01:46:45;;;;;;;;;;;;;;;20.58;50.52;100964.47;2113065;28;2007;-33
2021/04/08 01:47:46;;;;;;;;;;;;;;;20.59;50.41;100951.09;2111113;28;2499;-33
2021/04/08 01:48:47;;;;;;;;;;;;;;;20.59;50.48;100965.28;2111620;28;2305;-32
2021/04/08 01:49:49;;;;;;;;;;;;;;;20.59;50.59;100971.84;2109816;28;2250;-35
2021/04/08 01:50:50;;;;;;;;;;;;;;;20.59;50.61;100968.13;2115343;28;1688;-34
2021/04/08 01:51:50;;;;;;;;;;;;;;;20.59;50.50;100968.13;2113658;28;2295;-32
2021/04/08 01:52:51;;;;;;;;;;;;;;;20.59;50.48;100973.81;2114261;28;2295;-31
2021/04/08 01:53:52;;;;;;;;;;;;;;;20.59;50.43;100968.13;2112293;28;2256;-32
2021/04/08 01:54:53;;;;;;;;;;;;;;;20.59;50.66;100969.00;2111992;28;1210;-35
2021/04/08 01:55:54;;;;;;;;;;;;;;;20.59;50.65;100962.44;2114081;28;1475;-30
2021/04/08 01:56:55;;;;;;;;;;;;;;;20.59;50.69;100970.97;2114189;28;1879;-31
2021/04/08 01:57:56;;;;;;;;;;;;;;;20.58;50.50;100967.31;2115237;28;1507;-32
2021/04/08 01:58:56;;;;;;;;;;;;;;;20.60;50.72;100972.66;2112768;28;2204;-34
2021/04/08 01:59:57;;;;;;;;;;;;;;;20.59;50.52;100969.00;2112760;28;1872;-35
2021/04/08 02:00:58;;;;;;;;;;;;;;;20.59;50.61;100969.00;2112629;28;1436;-32
2021/04/08 02:01:59;;;;;;;;;;;;;;;20.58;50.66;100973.00;2112576;28;1945;-33
2021/04/08 02:02:59;;;;;;;;;;;;;;;20.59;50.67;100974.69;2111330;28;2086;-32
2021/04/08 02:04:00;;;;;;;;;;;;;;;20.60;50.69;100989.72;2108524;28;2207;-33
2021/04/08 02:05:01;;;;;;;;;;;;;;;20.60;50.80;100982.03;2111271;28;2370;-36
2021/04/08 02:06:02;;;;;;;;;;;;;;;20.61;50.88;100985.69;2115172;28;1722;-31
2021/04/08 02:07:03;;;;;;;;;;;;;;;20.59;50.83;100986.06;2113063;28;1950;-31
2021/04/08 02:08:03;;;;;;;;;;;;;;;20.57;50.93;100981.88;2109883;28;1632;-31
2021/04/08 02:09:04;;;;;;;;;;;;;;;;;;2112376;28;3799;-31
2021/04/08 02:10:05;;;;;;;;;;;;;;;20.58;51.30;100984.38;2112477;27;2183;-32
2021/04/08 02:11:06;;;;;;;;;;;;;;;20.63;51.19;100992.69;2114366;28;2214;-31
2021/04/08 02:12:06;;;;;;;;;;;;;;;20.62;51.03;100987.34;2113728;28;1887;-31
2021/04/08 02:13:07;;;;;;;;;;;;;;;20.61;50.98;100986.50;2114970;28;1135;-33
2021/04/08 02:14:08;;;;;;;;;;;;;;;20.62;51.04;100995.88;2111329;28;2064;-32
2021/04/08 02:15:09;;;;;;;;;;;;;;;20.61;50.96;100985.69;2110546;28;1354;-32
2021/04/08 02:16:09;;;;;;;;;;;;;;;20.62;51.02;100993.03;2112566;28;1701;-32
2021/04/08 02:17:10;;;;;;;;;;;;;;;20.61;51.11;100997.88;2112693;28;2306;-35
2021/04/08 02:18:11;;;;;;;;;;;;;;;20.61;51.07;101002.75;2114247;28;1297;-33
2021/04/08 02:19:12;;;;;;;;;;;;;;;20.59;50.93;100997.41;2114463;28;1963;-33
2021/04/08 02:20:13;;;;;;;;;;;;;;;20.60;51.03;100998.25;2114289;28;1882;-31
2021/04/08 02:21:13;;;;;;;;;;;;;;;20.61;50.97;101009.25;2110670;28;2071;-32
2021/04/08 02:22:14;;;;;;;;;;;;;;;20.61;51.15;100994.22;2111692;28;1893;-32
2021/04/08 02:23:15;;;;;;;;;;;;;;;20.60;51.17;100996.22;2110441;28;1976;-33
2021/04/08 02:24:16;;;;;;;;;;;;;;;20.60;51.33;101001.09;2112961;28;2102;-36
2021/04/08 02:25:16;;;;;;;;;;;;;;;20.62;51.81;100999.56;2114071;28;1985;-32
2021/04/08 02:26:17;;;;;;;;;;;;;;;20.62;51.57;100995.88;2115089;28;2063;-32
2021/04/08 02:27:18;;;;;;;;;;;;;;;20.63;51.76;100998.38;2111379;28;2150;-32
2021/04/08 02:28:19;;;;;;;;;;;;;;;20.65;52.05;101001.72;2114795;28;1617;-33
2021/04/08 02:29:19;;;;;;;;;;;;;;;20.65;52.14;101007.41;2115471;28;1451;-31
2021/04/08 02:30:20;;;;;;;;;;;;;;;20.66;52.09;101003.38;2115291;28;1118;-35
2021/04/08 02:31:21;;;;;;;;;;;;;;;20.65;51.88;101010.25;2112676;28;2062;-33
2021/04/08 02:32:22;;;;;;;;;;;;;;;20.63;51.76;101004.06;2110693;28;2241;-32
2021/04/08 02:33:22;;;;;;;;;;;;;;;20.63;51.54;101003.22;2114721;28;1986;-31
2021/04/08 02:34:23;;;;;;;;;;;;;;;20.63;51.50;101006.06;2113413;28;2087;-34
2021/04/08 02:35:24;;;;;;;;;;;;;;;20.62;51.45;101013.78;2111495;28;1120;-32
2021/04/08 02:36:25;;;;;;;;;;;;;;;20.62;51.43;101004.41;2108942;28;2421;-36
2021/04/08 02:37:25;;;;;;;;;;;;;;;20.61;51.48;101017.78;2115151;28;1678;-32
2021/04/08 02:38:26;;;;;;;;;;;;;;;20.62;51.43;101018.59;2114725;28;1097;-33
2021/04/08 02:39:27;;;;;;;;;;;;;;;20.62;51.54;101010.09;2115127;28;1255;-32
2021/04/08 02:40:28;;;;;;;;;;;;;;;20.62;51.54;101010.94;2114862;28;1301;-32
2021/04/08 02:41:28;;;;;;;;;;;;;;;20.62;51.33;101012.91;2109939;28;2872;-32
2021/04/08 02:42:29;;;;;;;;;;;;;;;20.62;51.42;101012.91;2114946;28;1992;-34
2021/04/08 02:43:30;;;;;;;;;;;;;;;20.61;51.41;101005.59;2114842;28;2092;-33
2021/04/08 02:44:31;;;;;;;;;;;;;;;20.62;51.36;101013.78;2114754;28;1182;-33
2021/04/08 02:45:31;;;;;;;;;;;;;;;20.62;51.25;101016.63;2109127;28;2434;-33
2021/04/08 02:46:32;;;;;;;;;;;;;;;20.62;51.20;101024.28;2111865;28;2288;-31
2021/04/08 02:47:33;;;;;;;;;;;;;;;20.61;51.30;101017.78;2113893;28;2071;-32
2021/04/08 02:48:34;;;;;;;;;;;;;;;20.62;51.26;101012.91;2114453;28;1210;-33
2021/04/08 02:49:34;;;;;;;;;;;;;;;20.62;51.28;101032.81;2113789;28;1846;-31
2021/04/08 02:50:35;;;;;;;;;;;;;;;20.61;51.39;101022.66;2113504;28;2219;-31
2021/04/08 02:51:36;;;;;;;;;;;;;;;20.63;51.27;101031.66;2111125;28;2079;-33
2021/04/08 02:52:37;;;;;;;;;;;;;;;20.63;51.36;101031.66;2108597;28;1074;-33
2021/04/08 02:53:37;;;;;;;;;;;;;;;20.63;51.27;101034.50;2114773;28;1645;-32
2021/04/08 02:54:39;;;;;;;;;;;;;;;20.62;51.35;101027.13;2114293;28;2095;-32
2021/04/08 02:55:39;;;;;;;;;;;;;;;20.62;51.31;101042.22;2108288;28;2250;-35
2021/04/08 02:56:40;;;;;;;;;;;;;;;20.63;51.26;101043.03;2110068;28;2210;-31
2021/04/08 02:57:41;;;;;;;;;;;;;;;20.63;51.22;101031.66;2115374;28;1543;-32
2021/04/08 02:58:42;;;;;;;;;;;;;;;20.63;51.30;101049.56;2114246;28;2178;-33
2021/04/08 02:59:43;;;;;;;;;;;;;;;20.62;51.20;101050.75;2111818;28;2176;-32
2021/04/08 03:00:43;;;;;;;;;;;;;;;20.64;51.15;101044.69;2111148;28;2216;-32
2021/04/08 03:01:44;;;;;;;;;;;;;;;20.64;51.28;101053.22;2115120;28;1349;-33
2021/04/08 03:02:45;;;;;;;;;;;;;;;20.64;51.37;101058.91;2114652;27;1718;-34
2021/04/08 03:03:46;;;;;;;;;;;;;;;20.64;51.17;101053.22;2110151;28;2193;-33
2021/04/08 03:04:47;;;;;;;;;;;;;;;20.64;51.28;101054.03;2114789;28;1610;-37
2021/04/08 03:05:48;;;;;;;;;;;;;;;20.64;51.18;101061.75;2110696;28;1994;-35
2021/04/08 03:06:49;;;;;;;;;;;;;;;20.64;51.22;101047.53;2112489;28;2233;-31
2021/04/08 03:07:49;;;;;;;;;;;;;;;20.65;51.26;101052.88;2114883;28;1917;-32
2021/04/08 03:08:50;;;;;;;;;;;;;;;20.64;51.24;101056.88;2111060;28;2155;-32
2021/04/08 03:09:51;;;;;;;;;;;;;;;20.66;51.42;101053.72;2111391;28;3865;-31
2021/04/08 03:10:52;;;;;;;;;;;;;;;20.65;51.34;101047.19;2114676;28;1608;-36
2021/04/08 03:11:52;;;;;;;;;;;;;;;20.66;51.49;101060.22;2110472;28;2113;-31
2021/04/08 03:12:53;;;;;;;;;;;;;;;20.66;51.37;101050.88;2108437;28;2087;-34
2021/04/08 03:13:55;;;;;;;;;;;;;;;20.65;51.47;101058.56;2110670;28;2238;-32
2021/04/08 03:14:56;;;;;;;;;;;;;;;20.66;51.29;101063.06;2113896;28;1874;-34
2021/04/08 03:15:57;;;;;;;;;;;;;;;20.65;51.38;101066.28;2114819;28;1585;-36
2021/04/08 03:16:58;;;;;;;;;;;;;;;20.64;51.34;101062.56;2111009;28;2102;-31
2021/04/08 03:17:58;;;;;;;;;;;;;;;20.63;51.37;101065.78;2111982;28;2058;-31
2021/04/08 03:18:59;;;;;;;;;;;;;;;20.61;51.33;101062.44;2115539;28;1692;-42
2021/04/08 03:20:00;;;;;;;;;;;;;;;20.62;51.16;101073.47;2111897;28;2237;-34
2021/04/08 03:21:01;;;;;;;;;;;;;;;20.62;51.25;101076.31;2114640;28;2509;-31
2021/04/08 03:22:02;;;;;;;;;;;;;;;20.63;51.13;101068.63;2116006;27;1358;-34
2021/04/08 03:23:02;;;;;;;;;;;;;;;20.63;51.09;101063.75;2112619;28;2011;-32
2021/04/08 03:24:03;;;;;;;;;;;;;;;20.65;51.15;101074.81;2111392;28;2708;-33
2021/04/08 03:25:04;;;;;;;;;;;;;;;20.64;51.17;101062.56;2115140;28;1948;-31
2021/04/08 03:26:05;;;;;;;;;;;;;;;20.63;51.12;101069.44;2114183;28;1939;-32
2021/04/08 03:27:06;;;;;;;;;;;;;;;20.63;51.11;101068.63;2110870;28;2406;-34
2021/04/08 03:28:06;;;;;;;;;;;;;;;20.64;50.94;101078.81;2116719;28;1993;-34
2021/04/08 03:29:07;;;;;;;;;;;;;;;20.64;51.07;101073.94;2115292;28;2342;-33
2021/04/08 03:30:08;;;;;;;;;;;;;;;20.65;50.93;101083.34;2114819;28;2267;-33
2021/04/08 03:31:09;;;;;;;;;;;;;;;20.64;51.08;101078.81;2113067;28;2137;-32
2021/04/08 03:32:09;;;;;;;;;;;;;;;20.64;50.94;101071.09;2110189;27;1605;-32
2021/04/08 03:33:10;;;;;;;;;;;;;;;20.64;51.08;101085.31;2116273;27;1381;-34
2021/04/08 03:34:11;;;;;;;;;;;;;;;20.64;51.03;101079.63;2111395;27;1953;-35
2021/04/08 03:35:12;;;;;;;;;;;;;;;20.64;50.91;101091.00;2114708;28;2094;-32
2021/04/08 03:36:12;;;;;;;;;;;;;;;20.65;51.05;101086.19;2117182;27;1849;-31
2021/04/08 03:37:13;;;;;;;;;;;;;;;20.65;51.07;101091.84;2115197;28;2113;-34
2021/04/08 03:38:14;;;;;;;;;;;;;;;20.65;50.98;101098.38;2112688;28;1986;-32
2021/04/08 03:39:15;;;;;;;;;;;;;;;20.66;50.90;101090.66;2115544;28;2019;-31
2021/04/08 03:40:15;;;;;;;;;;;;;;;20.65;51.04;101103.22;2111248;27;1994;-35
2021/04/08 03:41:16;;;;;;;;;;;;;;;20.65;51.00;101094.69;2115388;28;2939;-33
2021/04/08 03:42:17;;;;;;;;;;;;;;;20.65;50.97;101092.69;2116647;28;1118;-33
2021/04/08 03:43:18;;;;;;;;;;;;;;;20.64;50.98;101093.84;2111563;28;2048;-33
2021/04/08 03:44:19;;;;;;;;;;;;;;;20.64;51.00;101088.16;2116156;28;1170;-31
2021/04/08 03:45:20;;;;;;;;;;;;;;;20.65;51.04;101097.53;2114624;28;2119;-32
2021/04/08 03:46:21;;;;;;;;;;;;;;;20.65;51.00;101094.69;2114883;28;1785;-33
2021/04/08 03:47:21;;;;;;;;;;;;;;;20.66;50.97;101093.50;2108047;28;2330;-34
2021/04/08 03:48:22;;;;;;;;;;;;;;;20.64;50.89;101095.84;2112187;28;1951;-33
2021/04/08 03:49:23;;;;;;;;;;;;;;;20.63;50.91;101092.19;2116060;28;1658;-33
2021/04/08 03:50:24;;;;;;;;;;;;;;;20.64;50.81;101091.00;2111050;28;2025;-32
2021/04/08 03:51:25;;;;;;;;;;;;;;;20.64;50.85;101098.69;2116682;27;1607;-35
2021/04/08 03:52:25;;;;;;;;;;;;;;;20.63;50.90;101100.72;2108455;28;1235;-34
2021/04/08 03:53:26;;;;;;;;;;;;;;;20.63;50.80;101099.88;2112111;28;1888;-32
2021/04/08 03:54:27;;;;;;;;;;;;;;;20.63;50.81;101097.03;2116485;28;1721;-32
2021/04/08 03:55:27;;;;;;;;;;;;;;;20.62;50.67;101092.53;2110246;28;2149;-33
2021/04/08 03:56:28;;;;;;;;;;;;;;;20.63;50.61;101108.41;2103857;28;2161;-32
2021/04/08 03:57:29;;;;;;;;;;;;;;;20.62;50.77;101103.88;2106702;28;1667;-33
2021/04/08 03:58:30;;;;;;;;;;;;;;;20.62;50.81;101106.72;2108402;28;2305;-33
2021/04/08 03:59:31;;;;;;;;;;;;;;;20.61;50.72;101103.06;2115675;28;1880;-32
2021/04/08 04:00:31;;;;;;;;;;;;;;;20.61;50.61;101110.75;2112879;28;1909;-33
2021/04/08 04:01:32;;;;;;;;;;;;;;;20.61;50.66;101105.91;2115858;28;1300;-31
2021/04/08 04:02:33;;;;;;;;;;;;;;;20.60;50.57;101107.09;2112893;28;2404;-31
2021/04/08 04:03:34;;;;;;;;;;;;;;;20.61;50.59;101105.06;2109832;28;2396;-33
2021/04/08 04:04:34;;;;;;;;;;;;;;;20.61;50.67;101105.06;2115382;28;1379;-33
2021/04/08 04:05:35;;;;;;;;;;;;;;;20.62;50.66;101106.72;2115814;28;1851;-34
2021/04/08 04:06:37;;;;;;;;;;;;;;;20.62;50.72;101115.25;2116587;28;1466;-34
2021/04/08 04:07:38;;;;;;;;;;;;;;;20.61;50.58;101108.75;2114491;28;2261;-31
2021/04/08 04:08:39;;;;;;;;;;;;;;;20.61;50.70;101114.44;2112852;28;2041;-33
2021/04/08 04:09:39;;;;;;;;;;;;;;;20.61;50.69;101113.59;2110710;28;3874;-32
2021/04/08 04:10:40;;;;;;;;;;;;;;;20.62;50.49;101115.25;2111954;28;2281;-32
2021/04/08 04:11:41;;;;;;;;;;;;;;;20.61;50.60;101108.75;2114204;28;1311;-35
2021/04/08 04:12:42;;;;;;;;;;;;;;;20.62;50.56;101112.41;2112047;28;1920;-33
2021/04/08 04:13:42;;;;;;;;;;;;;;;20.61;50.52;101114.44;2112461;28;1801;-32
2021/04/08 04:14:44;;;;;;;;;;;;;;;20.62;50.50;101120.94;2114488;28;1286;-32
2021/04/08 04:15:45;;;;;;;;;;;;;;;20.61;50.62;101122.13;2110234;28;2324;-34
2021/04/08 04:16:46;;;;;;;;;;;;;;;20.61;50.46;101120.13;2114420;28;1674;-32
2021/04/08 04:17:47;;;;;;;;;;;;;;;20.61;50.50;101120.13;2112651;28;1719;-31
2021/04/08 04:18:48;;;;;;;;;;;;;;;20.62;50.54;101121.81;2110648;28;2026;-35
2021/04/08 04:19:48;;;;;;;;;;;;;;;20.61;50.53;101119.28;2113600;28;2305;-34
2021/04/08 04:21:04;;;;;;;;;;;;;;;20.62;50.61;101126.63;2109885;28;2135;-32
2021/04/08 04:22:05;;;;;;;;;;;;;;;20.62;50.47;101121.81;2114039;28;1806;-31
2021/04/08 04:23:05;;;;;;;;;;;;;;;20.62;50.58;101126.63;2111516;28;1907;-32
2021/04/08 04:24:06;;;;;;;;;;;;;;;20.62;50.48;101116.13;2115000;28;1645;-32
2021/04/08 04:25:07;;;;;;;;;;;;;;;20.62;50.40;101127.50;2115814;28;1493;-32
2021/04/08 04:26:08;;;;;;;;;;;;;;;20.63;50.48;101128.31;2115371;28;2220;-35
2021/04/08 04:27:09;;;;;;;;;;;;;;;20.62;50.59;101124.66;2110869;28;2046;-33
2021/04/08 04:28:10;;;;;;;;;;;;;;;20.62;50.52;101124.66;2112911;28;2415;-31
2021/04/08 04:29:11;;;;;;;;;;;;;;;20.62;50.52;101124.66;2116192;28;1295;-31
2021/04/08 04:30:12;;;;;;;;;;;;;;;20.62;50.49;101123.78;2115590;28;1297;-31
2021/04/08 04:31:13;;;;;;;;;;;;;;;20.62;50.62;101126.63;2114479;28;2248;-33
2021/04/08 04:32:14;;;;;;;;;;;;;;;20.62;50.56;101133.19;2114668;28;1784;-33
2021/04/08 04:33:15;;;;;;;;;;;;;;;20.62;50.76;101124.66;2116044;28;1349;-32
2021/04/08 04:34:15;;;;;;;;;;;;;;;20.64;50.54;101132.81;2110137;28;1928;-34
2021/04/08 04:35:17;;;;;;;;;;;;;;;20.62;50.49;101129.47;2110311;28;2534;-34
2021/04/08 04:36:18;;;;;;;;;;;;;;;20.63;50.38;101134.00;2114398;27;2009;-33
2021/04/08 04:37:19;;;;;;;;;;;;;;;20.63;50.54;101142.53;2117403;27;1140;-35
2021/04/08 04:38:20;;;;;;;;;;;;;;;20.63;50.59;101128.31;2115114;28;1801;-34
2021/04/08 04:39:21;;;;;;;;;;;;;;;20.63;50.45;101148.22;2115672;28;2014;-32
2021/04/08 04:40:21;;;;;;;;;;;;;;;20.62;50.39;101141.72;2114316;28;2042;-33
2021/04/08 04:41:22;;;;;;;;;;;;;;;20.63;50.53;101143.34;2111556;28;3089;-34
2021/04/08 04:42:23;;;;;;;;;;;;;;;20.63;50.61;101145.38;2114993;28;1426;-32
2021/04/08 04:43:24;;;;;;;;;;;;;;;20.64;50.53;101149.88;2113403;28;1997;-31
2021/04/08 04:44:24;;;;;;;;;;;;;;;20.64;50.63;101147.03;2110129;28;2234;-32
2021/04/08 04:45:25;;;;;;;;;;;;;;;20.63;50.59;101151.88;2112545;28;2099;-32
2021/04/08 04:46:26;;;;;;;;;;;;;;;20.64;50.48;101153.53;2115286;28;2503;-32
2021/04/08 04:47:27;;;;;;;;;;;;;;;20.64;50.65;101159.22;2111815;28;2257;-33
2021/04/08 04:48:28;;;;;;;;;;;;;;;20.65;50.71;101157.25;2108137;28;2292;-32
2021/04/08 04:49:29;;;;;;;;;;;;;;;20.64;50.58;101156.38;2111908;28;1622;-33
2021/04/08 04:50:29;;;;;;;;;;;;;;;20.64;50.68;101164.91;2111581;28;2103;-31
2021/04/08 04:51:31;;;;;;;;;;;;;;;20.65;50.74;101162.94;2113650;28;2250;-31
2021/04/08 04:52:31;;;;;;;;;;;;;;;20.65;50.72;101163.75;2116148;28;1190;-31
2021/04/08 04:53:32;;;;;;;;;;;;;;;20.66;50.73;101170.28;2112381;28;2145;-33
2021/04/08 04:54:33;;;;;;;;;;;;;;;20.65;50.70;101169.44;2113221;28;2259;-34
2021/04/08 04:55:34;;;;;;;;;;;;;;;20.65;50.65;101180.81;2112459;28;2141;-32
2021/04/08 04:56:34;;;;;;;;;;;;;;;20.66;50.76;101185.31;2115957;28;1323;-31
2021/04/08 04:57:35;;;;;;;;;;;;;;;20.65;50.62;101180.81;2109512;28;2371;-32
2021/04/08 04:58:36;;;;;;;;;;;;;;;20.66;50.58;101171.09;2112024;28;2012;-32
2021/04/08 04:59:37;;;;;;;;;;;;;;;20.66;50.68;101173.94;2111453;28;2246;-32
2021/04/08 05:00:37;;;;;;;;;;;;;;;20.66;50.74;101178.81;2112718;27;2131;-34
2021/04/08 05:01:38;;;;;;;;;;;;;;;20.66;50.77;101188.16;2109863;28;2189;-33
2021/04/08 05:02:39;;;;;;;;;;;;;;;20.66;50.67;101185.31;2110461;28;2086;-32
2021/04/08 05:03:40;;;;;;;;;;;;;;;20.66;50.67;101190.19;2114408;28;2238;-33
2021/04/08 05:04:43;;;;;;;;;;;;;;;20.66;50.64;101196.69;2110420;28;2122;-31
2021/04/08 05:05:44;;;;;;;;;;;;;;;20.66;50.79;101187.34;2112922;28;1981;-31
2021/04/08 05:06:44;;;;;;;;;;;;;;;20.67;50.71;101197.53;2115491;28;1141;-32
2021/04/08 05:07:45;;;;;;;;;;;;;;;20.66;50.60;101188.16;2111841;28;2074;-32
2021/04/08 05:08:46;;;;;;;;;;;;;;;20.66;50.63;101193.84;2113819;28;1252;-33
2021/04/08 05:09:47;;;;;;;;;;;;;;;20.66;50.75;101193.03;2114839;28;3966;-34
2021/04/08 05:10:47;;;;;;;;;;;;;;;20.65;50.69;101189.34;2109997;28;2206;-32
2021/04/08 05:11:48;;;;;;;;;;;;;;;20.65;50.68;101194.19;2109621;28;1959;-32
2021/04/08 05:12:49;;;;;;;;;;;;;;;20.65;50.63;101203.56;2110490;28;2157;-31
2021/04/08 05:13:50;;;;;;;;;;;;;;;20.66;50.49;101190.19;2113337;28;2002;-34
2021/04/08 05:14:51;;;;;;;;;;;;;;;20.66;50.48;101204.38;2115571;28;1120;-34
2021/04/08 05:15:52;;;;;;;;;;;;;;;20.66;50.45;101212.91;2115995;28;1591;-29
2021/04/08 05:16:54;;;;;;;;;;;;;;;20.65;50.45;101206.41;2115773;28;1123;-32